Time;durP1;ratioP1;P1;durP2;ratioP2;P2;SDS_P1;SDS_P2;PMS_P1;PMS_P2;Temp;Humidity;BMP_temperature;BMP_pressure;BME280_temperature;BME280_humidity;BME280_pressure;Samples;Min_cycle;Max_cycle;Signal;HPM_P1;HPM_P2
2022/07/18 00:01:03;;;;;;;3.08;2.80;;;;;;;19.55;47.20;95600.63;5114672;28;20187;-68
2022/07/18 00:03:30;;;;;;;3.33;2.90;;;;;;;19.56;47.54;95604.22;5115047;28;20227;-68
2022/07/18 00:05:58;;;;;;;3.55;3.20;;;;;;;19.55;47.78;95602.66;5114923;28;20568;-68
2022/07/18 00:08:26;;;;;;;3.60;2.88;;;;;;;19.58;47.32;95604.66;5115738;28;20188;-68
2022/07/18 00:10:52;;;;;;;3.03;2.50;;;;;;;19.65;46.09;95601.88;5114893;28;20207;-68
2022/07/18 00:13:19;;;;;;;3.38;2.38;;;;;;;19.72;46.07;95601.88;5115268;28;20207;-68
2022/07/18 00:15:47;;;;;;;3.10;2.38;;;;;;;19.66;47.08;95601.47;5115053;28;20268;-68
2022/07/18 00:18:13;;;;;;;2.72;2.50;;;;;;;19.53;47.21;95597.44;5115671;28;20203;-68
2022/07/18 00:20:40;;;;;;;3.13;2.80;;;;;;;19.49;47.63;95602.22;5114887;28;20207;-68
2022/07/18 00:23:08;;;;;;;3.53;2.47;;;;;;;19.42;47.39;95605.00;5114710;28;20206;-68
2022/07/18 00:25:35;;;;;;;3.10;2.42;;;;;;;19.32;47.98;95603.00;5114764;28;20210;-68
2022/07/18 00:28:02;;;;;;;2.30;2.20;;;;;;;19.22;47.40;95597.00;5115437;28;20592;-68
2022/07/18 00:30:28;;;;;;;2.58;2.38;;;;;;;19.24;47.52;95597.41;5115215;28;20188;-68
2022/07/18 00:32:55;;;;;;;2.38;2.17;;;;;;;19.33;44.79;95597.00;5114966;28;20215;-68
2022/07/18 00:35:22;;;;;;;2.40;2.20;;;;;;;19.48;43.39;95595.03;5115332;28;20596;-68
2022/07/18 00:37:49;;;;;;;2.10;2.00;;;;;;;19.59;43.01;95592.25;5115496;28;20188;-68
2022/07/18 00:40:17;;;;;;;3.00;1.90;;;;;;;19.60;43.12;95594.63;5115475;28;20495;-68
2022/07/18 00:42:44;;;;;;;2.05;1.85;;;;;;;19.62;42.99;95591.47;5114510;28;20211;-68
2022/07/18 00:45:11;;;;;;;2.47;2.28;;;;;;;19.62;41.88;95591.47;5114285;28;20199;-68
2022/07/18 00:47:37;;;;;;;1.90;1.80;;;;;;;19.67;41.84;95589.06;5114417;28;20195;-68
2022/07/18 00:50:06;;;;;;;2.25;2.15;;;;;;;19.73;40.98;95592.28;5116090;28;20187;-68
2022/07/18 00:52:34;;;;;;;2.10;1.80;;;;;;;19.74;40.86;95593.88;5118467;28;20609;-68
2022/07/18 00:55:01;;;;;;;2.03;1.90;;;;;;;19.73;40.56;95599.88;5118969;28;20227;-68
2022/07/18 00:57:29;;;;;;;2.30;2.10;;;;;;;19.58;43.17;95602.66;5119564;28;20188;-68
2022/07/18 01:02:40;;;;;;;2.00;1.80;;;;;;;19.35;43.96;95593.81;5117853;28;20615;-68
2022/07/18 01:05:09;;;;;;;2.10;1.90;;;;;;;19.39;42.52;95597.41;5119029;28;20188;-68
2022/07/18 01:07:36;;;;;;;1.70;1.60;;;;;;;19.43;40.58;95603.84;5118793;28;20237;-68
2022/07/18 01:10:04;;;;;;;2.10;2.00;;;;;;;19.31;43.42;95602.19;5119025;28;20199;-68
2022/07/18 01:12:32;;;;;;;1.95;1.80;;;;;;;19.14;44.02;95600.97;5118427;28;20219;-68
2022/07/18 01:14:59;;;;;;;2.47;2.28;;;;;;;19.05;44.83;95602.53;5118024;28;20208;-68
2022/07/18 01:17:26;;;;;;;2.40;1.95;;;;;;;18.90;45.19;95596.91;5118339;28;20192;-68
2022/07/18 01:19:53;;;;;;;2.30;1.85;;;;;;;18.87;45.45;95586.50;5118170;28;20207;-68
2022/07/18 01:22:21;;;;;;;2.33;2.13;;;;;;;18.81;45.33;95590.06;5118177;28;20211;-68
2022/07/18 01:24:48;;;;;;;2.08;1.98;;;;;;;18.68;45.37;95590.41;5118579;28;20194;-68
2022/07/18 01:27:16;;;;;;;2.25;1.80;;;;;;;18.58;44.78;95605.13;5118622;28;20188;-68
2022/07/18 01:29:43;;;;;;;2.65;2.00;;;;;;;18.49;45.40;95610.28;5118182;28;20583;-68
2022/07/18 01:32:10;;;;;;;2.88;1.80;;;;;;;18.42;45.20;95607.44;5117631;28;20195;-68
2022/07/18 01:34:37;;;;;;;3.13;1.85;;;;;;;18.42;45.46;95605.44;5118223;28;20184;-68
2022/07/18 01:37:07;;;;;;;1.98;1.85;;;;;;;18.49;45.50;95596.31;5118019;28;20206;-68
2022/07/18 01:39:35;;;;;;;3.17;2.10;;;;;;;18.57;43.95;95583.19;5118101;28;20596;-68
2022/07/18 01:42:05;;;;;;;2.00;1.90;;;;;;;18.70;43.00;95581.63;5118505;28;20195;-68
2022/07/18 01:44:33;;;;;;;2.00;1.85;;;;;;;18.82;42.21;95589.69;5117755;28;20191;-68
2022/07/18 01:47:00;;;;;;;2.10;1.90;;;;;;;18.82;42.11;95586.09;5117233;28;20269;-68
2022/07/18 01:49:29;;;;;;;2.15;1.75;;;;;;;18.68;44.51;95589.59;5117480;28;20188;-68
2022/07/18 01:51:57;;;;;;;1.95;1.85;;;;;;;18.49;45.30;95585.13;5117984;28;20638;-68
2022/07/18 01:54:25;;;;;;;1.92;1.63;;;;;;;18.33;45.77;95590.22;5116911;28;20238;-68
2022/07/18 01:56:53;;;;;;;1.73;1.63;;;;;;;18.29;44.88;95576.25;5116865;28;20192;-68
2022/07/18 01:59:20;;;;;;;2.22;1.80;;;;;;;18.44;43.72;95577.91;5116844;28;20191;-68
2022/07/18 02:01:47;;;;;;;2.40;2.10;;;;;;;18.34;44.79;95578.69;5117347;28;20199;-68
2022/07/18 02:04:14;;;;;;;2.20;2.00;;;;;;;18.10;44.16;95587.69;5118048;28;20194;-68
2022/07/18 02:06:41;;;;;;;3.13;2.03;;;;;;;17.90;44.32;95579.59;5117948;28;20179;-68
2022/07/18 02:09:08;;;;;;;2.92;2.20;;;;;;;17.80;45.14;95578.34;5117673;28;20172;-68
2022/07/18 02:11:35;;;;;;;2.30;1.95;;;;;;;17.79;45.27;95584.28;5117658;28;20184;-68
2022/07/18 02:14:04;;;;;;;2.58;2.20;;;;;;;17.87;44.88;95587.97;5117314;28;20219;-68
2022/07/18 02:16:31;;;;;;;2.35;2.15;;;;;;;17.94;44.92;95588.00;5117794;28;20191;-68
2022/07/18 02:18:58;;;;;;;3.05;2.08;;;;;;;17.86;45.91;95586.34;5116674;28;20199;-68
2022/07/18 02:21:26;;;;;;;2.50;2.30;;;;;;;17.69;45.82;95594.16;5117326;28;20183;-68
2022/07/18 02:23:54;;;;;;;4.95;2.40;;;;;;;17.50;46.17;95592.41;5117294;28;20657;-68
2022/07/18 02:26:20;;;;;;;3.38;2.70;;;;;;;17.40;46.30;95589.53;5116585;28;20192;-68
2022/07/18 02:28:47;;;;;;;3.42;2.42;;;;;;;17.33;46.42;95599.41;5117446;28;20187;-68
2022/07/18 02:31:15;;;;;;;2.92;2.40;;;;;;;17.39;46.50;95601.84;5116494;28;20198;-68
2022/07/18 02:33:42;;;;;;;2.60;2.40;;;;;;;17.50;45.98;95606.34;5117428;28;20204;-68
2022/07/18 02:36:09;;;;;;;3.60;2.60;;;;;;;17.56;45.95;95598.41;5116747;28;20203;-68
2022/07/18 02:38:36;;;;;;;2.42;2.25;;;;;;;17.62;45.61;95596.88;5116529;28;20191;-68
2022/07/18 02:41:02;;;;;;;3.25;2.50;;;;;;;17.71;46.00;95600.13;5117157;28;20218;-69
2022/07/18 02:43:29;;;;;;;3.08;2.50;;;;;;;17.79;44.96;95607.44;5117129;28;20176;-68
2022/07/18 02:45:56;;;;;;;2.50;2.30;;;;;;;17.87;45.29;95610.28;5117098;28;20188;-68
2022/07/18 02:48:24;;;;;;;3.08;2.63;;;;;;;17.85;45.42;95616.22;5115853;28;20210;-68
2022/07/18 02:50:51;;;;;;;2.85;2.35;;;;;;;17.72;45.58;95609.31;5116123;28;20196;-68
2022/07/18 02:53:19;;;;;;;3.60;2.17;;;;;;;17.53;45.40;95616.72;5115902;28;20247;-68
2022/07/18 02:55:46;;;;;;;2.58;2.35;;;;;;;17.42;46.08;95612.22;5116690;28;20209;-68
2022/07/18 02:58:12;;;;;;;3.72;2.30;;;;;;;17.36;46.25;95620.16;5116596;28;20599;-68
2022/07/18 03:00:39;;;;;;;3.97;2.33;;;;;;;17.32;46.46;95610.97;5116521;28;20622;-68
2022/07/18 03:03:06;;;;;;;2.95;2.20;;;;;;;17.35;46.86;95621.31;5115481;28;20199;-68
2022/07/18 03:05:34;;;;;;;2.53;2.30;;;;;;;17.38;45.99;95623.34;5116625;28;20586;-68
2022/07/18 03:08:01;;;;;;;2.30;2.10;;;;;;;17.38;46.60;95628.13;5116417;28;20188;-68
2022/07/18 03:10:28;;;;;;;2.13;1.98;;;;;;;17.28;46.06;95624.88;5116613;28;20199;-68
2022/07/18 03:12:54;;;;;;;2.38;2.08;;;;;;;17.19;46.16;95629.94;5115338;28;20483;-68
2022/07/18 03:15:21;;;;;;;2.55;1.83;;;;;;;17.15;46.79;95628.31;5116172;28;20214;-68
2022/07/18 03:17:48;;;;;;;5.00;2.47;;;;;;;17.08;46.96;95640.97;5115658;28;20203;-68
2022/07/18 03:20:15;;;;;;;2.28;2.08;;;;;;;17.11;46.69;95627.47;5116276;28;20198;-68
2022/07/18 03:22:43;;;;;;;2.67;1.80;;;;;;;17.18;46.87;95633.13;5115300;28;20204;-68
2022/07/18 03:25:10;;;;;;;2.30;2.10;;;;;;;17.24;46.18;95637.94;5115454;28;20607;-68
2022/07/18 03:27:37;;;;;;;3.05;2.30;;;;;;;17.28;47.22;95635.19;5115859;28;20199;-68
2022/07/18 03:30:05;;;;;;;2.67;2.17;;;;;;;17.27;47.15;95628.81;5115765;28;20206;-68
2022/07/18 03:32:31;;;;;;;2.60;2.30;;;;;;;17.29;46.78;95631.25;5115282;28;20623;-68
2022/07/18 03:35:00;;;;;;;4.75;2.90;;;;;;;17.35;46.48;95628.91;5114909;28;20212;-68
2022/07/18 03:37:27;;;;;;;3.83;2.58;;;;;;;17.33;46.83;95629.28;5115208;28;20244;-68
2022/07/18 03:39:55;;;;;;;4.60;2.40;;;;;;;17.25;47.78;95628.41;5114953;28;20192;-68
2022/07/18 03:42:22;;;;;;;2.97;2.40;;;;;;;17.18;48.43;95625.56;5115439;28;20207;-68
2022/07/18 03:44:48;;;;;;;5.78;2.70;;;;;;;17.14;48.76;95621.94;5115680;28;20248;-68
2022/07/18 03:47:15;;;;;;;4.28;2.60;;;;;;;17.09;48.50;95634.19;5115804;28;20187;-68
2022/07/18 03:49:42;;;;;;;4.28;2.95;;;;;;;17.04;48.75;95631.78;5115354;28;20225;-68
2022/07/18 03:52:09;;;;;;;6.68;2.85;;;;;;;17.03;48.49;95621.81;5115928;28;20206;-68
2022/07/18 03:54:35;;;;;;;7.10;2.90;;;;;;;16.98;48.56;95627.72;5114635;28;20224;-68
2022/07/18 03:57:04;;;;;;;4.72;2.55;;;;;;;16.94;48.66;95640.00;5115728;28;20188;-68
2022/07/18 03:59:30;;;;;;;5.25;3.30;;;;;;;16.92;48.92;95628.44;5115041;28;20199;-68
2022/07/18 04:01:57;;;;;;;8.32;2.83;;;;;;;16.94;49.31;95629.66;5114900;28;20203;-68
2022/07/18 04:04:24;;;;;;;7.47;2.90;;;;;;;17.03;48.71;95632.97;5114712;28;20202;-68
2022/07/18 04:06:51;;;;;;;4.25;2.72;;;;;;;17.11;48.33;95636.63;5115033;28;20196;-68
2022/07/18 04:09:17;;;;;;;5.65;2.70;;;;;;;17.18;48.68;95635.91;5115826;28;20180;-68
2022/07/18 04:11:44;;;;;;;5.78;2.80;;;;;;;17.23;48.81;95641.94;5115389;28;20192;-69
2022/07/18 04:14:12;;;;;;;4.40;2.30;;;;;;;17.24;48.56;95635.16;5115761;28;20215;-68
2022/07/18 04:16:39;;;;;;;4.43;2.70;;;;;;;17.32;48.32;95638.84;5115410;28;20638;-68
2022/07/18 04:19:05;;;;;;;4.63;2.40;;;;;;;17.35;48.94;95634.47;5115259;28;20626;-68
2022/07/18 04:21:33;;;;;;;5.05;2.92;;;;;;;17.41;49.37;95638.53;5114725;28;20269;-68
2022/07/18 04:23:59;;;;;;;4.75;2.75;;;;;;;17.41;49.57;95644.91;5115202;28;20188;-68
2022/07/18 04:26:26;;;;;;;4.72;2.53;;;;;;;17.41;49.47;95644.09;5119656;28;20190;-68
2022/07/18 04:28:53;;;;;;;4.28;2.42;;;;;;;17.41;48.41;95644.09;5119852;28;20241;-68
2022/07/18 04:31:21;;;;;;;4.35;2.30;;;;;;;17.42;48.15;95645.69;5119720;28;20198;-68
2022/07/18 04:33:48;;;;;;;4.43;2.33;;;;;;;17.50;48.72;95627.84;5119699;28;20204;-68
2022/07/18 04:36:14;;;;;;;3.25;2.63;;;;;;;17.55;48.11;95633.09;5118516;28;20195;-68
2022/07/18 04:38:41;;;;;;;4.78;2.72;;;;;;;17.59;48.08;95633.91;5118432;28;20191;-68
2022/07/18 04:41:08;;;;;;;3.70;2.53;;;;;;;17.69;47.32;95622.06;5118616;28;20284;-68
2022/07/18 04:43:35;;;;;;;2.83;2.40;;;;;;;17.82;46.23;95622.56;5119404;28;20191;-68
2022/07/18 04:46:02;;;;;;;3.30;2.40;;;;;;;17.93;46.05;95628.25;5118385;28;20202;-69
2022/07/18 04:48:30;;;;;;;4.32;2.28;;;;;;;17.99;45.29;95626.69;5118318;28;20204;-68
2022/07/18 04:50:57;;;;;;;3.53;2.00;;;;;;;18.01;44.06;95619.56;5118487;28;20195;-68
2022/07/18 04:53:23;;;;;;;2.83;1.95;;;;;;;18.08;43.40;95617.97;5119164;28;20234;-68
2022/07/18 04:55:50;;;;;;;2.97;2.00;;;;;;;18.15;42.24;95612.44;5118471;28;20208;-68
2022/07/18 04:58:17;;;;;;;2.10;1.65;;;;;;;18.21;42.54;95616.47;5119080;28;20245;-68
2022/07/18 05:00:44;;;;;;;1.85;1.50;;;;;;;18.22;42.15;95627.25;5119272;28;20184;-68
2022/07/18 05:03:11;;;;;;;2.35;1.60;;;;;;;18.27;41.99;95621.31;5118194;28;20260;-68
2022/07/18 05:05:39;;;;;;;3.40;1.98;;;;;;;18.33;40.96;95620.94;5119311;28;20249;-68
2022/07/18 05:08:06;;;;;;;1.95;1.65;;;;;;;18.35;41.56;95624.16;5118440;28;20203;-68
2022/07/18 05:10:34;;;;;;;1.75;1.65;;;;;;;18.35;41.79;95624.94;5118775;28;20180;-68
2022/07/18 05:13:01;;;;;;;1.63;1.50;;;;;;;18.36;41.81;95617.38;5118909;28;20268;-68
2022/07/18 05:15:28;;;;;;;2.08;1.73;;;;;;;18.40;41.44;95610.59;5119027;28;20216;-68
2022/07/18 05:17:54;;;;;;;2.17;1.70;;;;;;;18.44;40.47;95621.78;5118598;28;20184;-68
2022/07/18 05:20:23;;;;;;;1.63;1.52;;;;;;;18.45;40.64;95621.44;5117774;28;20203;-68
2022/07/18 05:22:52;;;;;;;1.55;1.45;;;;;;;18.50;41.05;95626.63;5117625;28;20214;-68
2022/07/18 05:25:20;;;;;;;1.67;1.58;;;;;;;18.55;40.71;95619.06;5118440;28;20604;-68
2022/07/18 05:27:46;;;;;;;2.45;1.70;;;;;;;18.58;41.56;95619.09;5118603;28;20192;-68
2022/07/18 05:30:14;;;;;;;1.65;1.55;;;;;;;18.56;41.58;95613.09;5118630;28;20196;-68
2022/07/18 05:32:42;;;;;;;2.17;1.60;;;;;;;18.58;41.41;95618.28;5118277;28;20616;-68
2022/07/18 05:35:10;;;;;;;1.70;1.60;;;;;;;18.61;42.34;95620.31;5118129;28;20207;-68
2022/07/18 05:37:37;;;;;;;1.63;1.50;;;;;;;18.63;40.54;95623.53;5117360;28;20179;-68
2022/07/18 05:40:07;;;;;;;1.75;1.65;;;;;;;18.64;42.08;95622.31;5117284;28;20200;-68
2022/07/18 05:42:34;;;;;;;2.50;1.40;;;;;;;18.66;41.33;95619.91;5118548;28;20187;-68
2022/07/18 05:45:01;;;;;;;1.70;1.30;;;;;;;18.69;40.75;95628.31;5117943;28;20490;-68
2022/07/18 05:47:28;;;;;;;1.67;1.45;;;;;;;18.73;40.10;95625.56;5117968;28;20199;-68
2022/07/18 05:49:55;;;;;;;2.53;1.33;;;;;;;18.76;39.60;95627.59;5118182;28;20195;-68
2022/07/18 05:52:22;;;;;;;3.55;1.45;;;;;;;18.77;38.99;95629.19;5118414;28;20199;-68
2022/07/18 05:54:48;;;;;;;1.63;1.50;;;;;;;18.80;40.08;95627.59;5117589;28;20231;-68
2022/07/18 05:57:17;;;;;;;2.47;1.60;;;;;;;18.84;40.20;95625.63;5117737;28;20195;-68
2022/07/18 05:59:43;;;;;;;1.80;1.70;;;;;;;18.86;40.30;95629.63;5117329;28;20184;-68
2022/07/18 06:02:10;;;;;;;1.60;1.50;;;;;;;18.89;40.25;95628.06;5117662;28;20210;-68
2022/07/18 06:04:37;;;;;;;3.08;1.60;;;;;;;18.92;40.29;95627.28;5117118;28;20200;-68
2022/07/18 06:07:04;;;;;;;1.95;1.70;;;;;;;18.94;39.52;95631.25;5117781;28;20256;-68
2022/07/18 06:09:31;;;;;;;1.73;1.50;;;;;;;18.96;39.27;95625.28;5117841;28;20244;-68
2022/07/18 06:11:59;;;;;;;1.85;1.75;;;;;;;18.98;36.90;95623.66;5117868;28;20199;-68
2022/07/18 06:14:27;;;;;;;1.80;1.70;;;;;;;19.02;37.71;95636.88;5116650;28;20751;-68
2022/07/18 06:16:54;;;;;;;2.58;1.58;;;;;;;19.04;38.22;95635.28;5116631;28;20199;-68
2022/07/18 06:19:21;;;;;;;1.77;1.67;;;;;;;19.05;38.67;95631.28;5117161;28;20192;-68
2022/07/18 06:21:48;;;;;;;1.50;1.40;;;;;;;19.07;38.15;95631.72;5116757;28;20248;-68
2022/07/18 06:24:15;;;;;;;1.50;1.40;;;;;;;19.12;36.94;95630.50;5117599;28;20184;-68
2022/07/18 06:26:42;;;;;;;1.45;1.35;;;;;;;19.13;37.16;95626.50;5117648;28;20188;-68
2022/07/18 06:29:10;;;;;;;2.30;1.38;;;;;;;19.16;37.27;95623.72;5116545;28;20232;-68
2022/07/18 06:31:38;;;;;;;2.47;1.63;;;;;;;19.18;37.51;95628.94;5099581;28;20261;-68
2022/07/18 06:34:05;;;;;;;2.05;1.60;;;;;;;19.19;37.67;95616.56;5116461;28;20208;-68
2022/07/18 06:36:32;;;;;;;1.60;1.50;;;;;;;19.22;36.98;95619.38;5117355;28;20229;-68
2022/07/18 06:38:58;;;;;;;1.50;1.38;;;;;;;19.27;37.55;95625.75;5117246;28;20183;-68
2022/07/18 06:41:25;;;;;;;1.50;1.40;;;;;;;19.29;37.70;95621.38;5115988;28;20691;-68
2022/07/18 06:43:52;;;;;;;4.07;2.08;;;;;;;19.33;37.29;95610.19;5116954;28;20187;-68
2022/07/18 06:46:19;;;;;;;2.17;1.50;;;;;;;19.36;37.34;95615.00;5116324;28;20631;-68
2022/07/18 06:48:47;;;;;;;1.70;1.60;;;;;;;19.37;36.47;95611.00;5116000;28;20210;-68
2022/07/18 06:51:14;;;;;;;1.80;1.70;;;;;;;19.39;36.91;95614.19;5116105;28;20200;-68
2022/07/18 06:53:41;;;;;;;3.55;1.58;;;;;;;19.43;36.56;95615.03;5116769;28;20245;-68
2022/07/18 06:56:08;;;;;;;2.45;1.90;;;;;;;19.44;36.92;95605.44;5116195;28;20211;-68
2022/07/18 06:58:35;;;;;;;2.55;2.05;;;;;;;19.47;36.46;95608.22;5116382;28;20563;-68
2022/07/18 07:01:02;;;;;;;2.15;1.95;;;;;;;19.52;35.84;95606.22;5115801;28;20206;-68
2022/07/18 07:03:28;;;;;;;2.63;1.63;;;;;;;19.53;35.73;95605.03;5116998;28;20194;-68
2022/07/18 07:05:57;;;;;;;1.92;1.83;;;;;;;19.53;34.91;95605.81;5116903;28;20180;-67
2022/07/18 07:08:23;;;;;;;1.70;1.60;;;;;;;19.57;35.80;95603.84;5116710;28;20195;-67
2022/07/18 07:10:50;;;;;;;1.95;1.83;;;;;;;19.61;36.35;95596.25;5116765;28;20183;-68
2022/07/18 07:13:17;;;;;;;2.72;1.95;;;;;;;19.64;35.76;95605.84;5115325;28;20199;-68
2022/07/18 07:15:44;;;;;;;1.60;1.50;;;;;;;19.65;35.93;95602.69;5116254;28;20284;-68
2022/07/18 07:18:11;;;;;;;2.13;1.65;;;;;;;19.67;35.84;95602.28;5116218;28;20184;-68
2022/07/18 07:20:38;;;;;;;2.35;1.70;;;;;;;19.70;36.37;95593.09;5115949;28;20324;-68
2022/07/18 07:23:08;;;;;;;2.85;1.77;;;;;;;19.75;36.40;95601.06;5115357;28;20206;-68
2022/07/18 07:25:37;;;;;;;1.90;1.80;;;;;;;19.79;35.27;95592.66;5116737;28;20190;-68
2022/07/18 07:28:04;;;;;;;3.13;2.20;;;;;;;19.84;35.74;95598.69;5115973;28;20542;-68
2022/07/18 07:30:31;;;;;;;3.33;2.50;;;;;;;19.88;35.17;95593.88;5116541;28;20189;-68
2022/07/18 07:32:58;;;;;;;3.13;2.20;;;;;;;19.91;34.41;95603.47;5115488;28;20195;-67
2022/07/18 07:35:25;;;;;;;3.65;2.30;;;;;;;19.95;33.93;95601.47;5115421;28;20207;-68
2022/07/18 07:37:54;;;;;;;1.70;1.60;;;;;;;19.98;34.13;95606.28;5115265;28;20638;-67
2022/07/18 07:40:24;;;;;;;2.90;2.35;;;;;;;20.02;33.95;95604.28;5115906;28;20184;-67
2022/07/18 07:42:51;;;;;;;2.90;1.70;;;;;;;20.04;33.98;95603.84;5116086;28;20500;-67
2022/07/18 07:45:20;;;;;;;2.95;2.53;;;;;;;20.04;33.64;95581.47;5115248;28;20196;-67
2022/07/18 07:47:47;;;;;;;2.08;1.83;;;;;;;20.08;33.56;95587.84;5115189;28;20195;-68
2022/07/18 07:50:14;;;;;;;2.88;1.98;;;;;;;20.15;33.87;95587.84;5116364;28;20184;-67
2022/07/18 07:52:41;;;;;;;2.10;2.00;;;;;;;20.19;33.57;95597.84;5114963;28;20249;-67
2022/07/18 07:55:08;;;;;;;1.90;1.50;;;;;;;20.25;32.73;95600.25;5114807;28;20215;-67
2022/07/18 07:57:37;;;;;;;2.58;1.95;;;;;;;20.29;33.13;95604.63;5115074;28;20199;-67
2022/07/18 08:00:07;;;;;;;2.00;1.50;;;;;;;20.33;32.00;95604.63;5115718;28;20184;-68
2022/07/18 08:02:34;;;;;;;3.58;1.80;;;;;;;20.31;32.49;95601.44;5116080;28;20218;-68
2022/07/18 08:05:01;;;;;;;1.70;1.60;;;;;;;20.33;33.45;95590.59;5115735;28;20184;-67
2022/07/18 08:07:28;;;;;;;3.55;1.70;;;;;;;20.44;33.15;95602.59;5115288;28;20187;-67
2022/07/18 08:09:55;;;;;;;1.60;1.50;;;;;;;20.50;33.02;95600.22;5114659;28;20188;-67
2022/07/18 08:12:22;;;;;;;1.70;1.50;;;;;;;20.55;31.84;95605.41;5115255;28;20200;-67
2022/07/18 08:14:51;;;;;;;1.95;1.60;;;;;;;20.57;32.43;95603.00;5114715;28;20227;-68
2022/07/18 08:17:18;;;;;;;2.65;1.52;;;;;;;20.62;32.27;95594.97;5115693;28;20211;-68
2022/07/18 08:19:45;;;;;;;2.50;1.67;;;;;;;20.66;30.74;95595.78;5114804;28;20214;-68
2022/07/18 08:22:12;;;;;;;3.63;1.80;;;;;;;20.70;30.82;95592.13;5115753;28;20206;-68
2022/07/18 08:24:39;;;;;;;2.53;1.63;;;;;;;20.75;32.35;95597.34;5115586;28;20272;-68
2022/07/18 08:27:06;;;;;;;1.60;1.40;;;;;;;20.85;32.46;95596.50;5114660;28;20195;-68
2022/07/18 08:29:33;;;;;;;1.60;1.50;;;;;;;20.89;30.93;95602.88;5114517;28;20188;-68
2022/07/18 08:32:01;;;;;;;2.22;1.65;;;;;;;20.90;31.15;95605.28;5115078;28;20199;-68
2022/07/18 08:34:27;;;;;;;1.67;1.40;;;;;;;20.93;31.45;95598.06;5115540;28;20191;-68
2022/07/18 08:36:54;;;;;;;2.25;1.50;;;;;;;21.08;32.54;95598.78;5114525;28;20204;-68
2022/07/18 08:39:21;;;;;;;2.08;1.70;;;;;;;21.25;31.64;95597.91;5114507;28;20200;-68
2022/07/18 08:41:51;;;;;;;1.83;1.73;;;;;;;21.26;30.51;95593.88;5115560;28;20588;-68
2022/07/18 08:44:18;;;;;;;1.40;1.30;;;;;;;21.31;31.77;95587.81;5114783;28;20199;-68
2022/07/18 08:46:50;;;;;;;1.85;1.48;;;;;;;21.44;30.12;95590.19;5115108;28;20580;-68
2022/07/18 08:49:19;;;;;;;1.60;1.50;;;;;;;21.49;31.77;95589.75;5114370;28;20199;-68
2022/07/18 08:51:46;;;;;;;1.55;1.45;;;;;;;21.56;31.02;95584.09;5115505;28;20176;-68
2022/07/18 08:54:13;;;;;;;1.70;1.60;;;;;;;21.70;30.63;95589.59;5114428;28;20228;-68
2022/07/18 08:56:40;;;;;;;1.73;1.63;;;;;;;21.86;32.38;95589.88;5115289;28;20212;-68
2022/07/18 08:59:07;;;;;;;2.15;1.60;;;;;;;22.04;32.21;95597.34;5115224;28;20191;-68
2022/07/18 09:01:33;;;;;;;1.85;1.73;;;;;;;22.17;31.98;95584.41;5114852;28;20194;-68
2022/07/18 09:04:16;;;;;;;2.95;1.70;;;;;;;22.33;31.31;95581.03;5115024;28;20199;-68
2022/07/18 09:06:46;;;;;;;1.80;1.70;;;;;;;22.44;31.12;95581.75;5114943;28;20643;-68
2022/07/18 09:09:14;;;;;;;1.75;1.60;;;;;;;22.43;30.20;95580.13;5115203;28;20252;-68
2022/07/18 09:11:52;;;;;;;1.50;1.40;;;;;;;22.40;31.44;95569.72;5117669;28;20237;-68
2022/07/18 09:14:32;;;;;;;1.88;1.40;;;;;;;22.40;31.44;95571.75;5118097;28;20199;-68
2022/07/18 09:17:04;;;;;;;2.58;1.70;;;;;;;22.51;32.29;95576.06;5118743;28;20212;-67
2022/07/18 09:19:31;;;;;;;2.83;1.73;;;;;;;22.58;32.16;95569.53;5119012;28;20184;-68
2022/07/18 09:22:20;;;;;;;5.38;1.77;;;;;;;22.75;32.25;95579.78;5117949;28;20204;-67
2022/07/18 09:24:51;;;;;;;2.08;1.85;;;;;;;22.89;31.40;95586.44;5118690;28;20192;-67
2022/07/18 09:27:38;;;;;;;2.45;2.00;;;;;;;22.95;31.85;95577.16;5117852;28;20184;-67
2022/07/18 09:30:23;;;;;;;2.50;1.85;;;;;;;23.12;32.76;95578.13;5117765;28;20259;-67
2022/07/18 09:32:52;;;;;;;3.08;1.73;;;;;;;23.24;33.34;95571.94;5117613;28;20210;-67
2022/07/18 09:35:22;;;;;;;2.13;1.80;;;;;;;23.36;34.13;95575.41;5117510;28;20215;-67
2022/07/18 09:37:59;;;;;;;1.88;1.70;;;;;;;23.43;32.89;95573.28;5117724;28;20207;-67
2022/07/18 09:40:27;;;;;;;3.10;1.80;;;;;;;23.49;33.25;95577.22;5118167;28;20180;-67
2022/07/18 09:42:56;;;;;;;2.58;1.92;;;;;;;23.53;33.28;95569.50;5117397;28;20223;-68
2022/07/18 09:45:28;;;;;;;2.08;1.75;;;;;;;23.66;32.57;95569.69;5118354;28;20204;-68
2022/07/18 09:47:56;;;;;;;4.97;2.35;;;;;;;23.72;33.94;95568.03;5117233;28;20200;-68
2022/07/18 09:50:29;;;;;;;2.67;2.03;;;;;;;23.83;32.34;95567.88;5118089;28;20184;-68
2022/07/18 09:53:09;;;;;;;1.98;1.88;;;;;;;23.83;31.71;95570.69;5117793;28;20176;-68
2022/07/18 09:55:36;;;;;;;2.05;1.80;;;;;;;23.87;32.01;95565.78;5118069;28;20207;-68
2022/07/18 09:58:06;;;;;;;2.08;1.88;;;;;;;23.95;33.44;95566.47;5117124;28;20287;-68
2022/07/18 10:00:35;;;;;;;2.20;2.00;;;;;;;24.06;32.42;95557.81;5118045;28;20197;-68
2022/07/18 10:03:04;;;;;;;3.28;1.90;;;;;;;24.08;32.11;95563.84;5117959;28;20194;-68
2022/07/18 10:05:32;;;;;;;2.28;2.00;;;;;;;24.18;33.71;95562.84;5117072;28;20199;-68
2022/07/18 10:08:00;;;;;;;3.10;1.95;;;;;;;24.27;31.77;95554.63;5117955;28;20249;-68
2022/07/18 10:10:29;;;;;;;2.55;2.20;;;;;;;24.26;32.52;95558.69;5117636;28;20523;-68
2022/07/18 10:12:58;;;;;;;2.80;2.00;;;;;;;24.32;31.97;95548.47;5117530;28;20194;-68
2022/07/18 10:15:26;;;;;;;3.65;2.00;;;;;;;24.37;31.67;95556.47;5117246;28;20220;-68
2022/07/18 10:17:53;;;;;;;2.35;1.95;;;;;;;24.41;33.20;95557.22;5117793;28;20192;-68
2022/07/18 10:20:26;;;;;;;2.10;1.95;;;;;;;24.44;32.06;95545.06;5117738;28;20180;-67
2022/07/18 10:22:55;;;;;;;1.88;1.75;;;;;;;24.47;32.80;95540.56;5117057;28;20188;-68
2022/07/18 10:25:23;;;;;;;2.55;2.00;;;;;;;24.53;31.54;95540.88;5117551;28;20250;-68
2022/07/18 10:27:53;;;;;;;2.40;2.20;;;;;;;24.64;32.62;95547.91;5117153;28;20255;-68
2022/07/18 10:30:32;;;;;;;2.17;2.00;;;;;;;24.72;33.95;95535.22;5117909;28;20195;-68
2022/07/18 10:32:59;;;;;;;2.22;1.95;;;;;;;24.79;34.31;95528.66;5117474;28;20603;-68
2022/07/18 10:35:59;;;;;;;4.03;2.67;;;;;;;24.87;32.51;95529.31;5116989;28;20208;-68
2022/07/18 10:38:26;;;;;;;3.40;2.10;;;;;;;24.91;33.37;95525.19;5117097;28;20543;-68
2022/07/18 10:41:11;;;;;;;2.97;2.60;;;;;;;24.97;32.22;95523.44;5116359;28;20196;-68
2022/07/18 10:43:42;;;;;;;3.30;2.20;;;;;;;24.96;31.82;95515.41;5117229;28;20180;-68
2022/07/18 10:46:09;;;;;;;5.43;2.45;;;;;;;24.97;32.77;95519.81;5116437;28;20215;-68
2022/07/18 10:48:50;;;;;;;4.18;2.40;;;;;;;25.06;32.09;95513.59;5115944;28;20233;-68
2022/07/18 10:51:18;;;;;;;2.20;2.05;;;;;;;25.14;31.58;95515.84;5116302;28;20207;-68
2022/07/18 10:54:10;;;;;;;2.00;1.90;;;;;;;25.20;32.18;95518.94;5116073;28;20304;-68
2022/07/18 10:57:09;;;;;;;2.80;2.10;;;;;;;25.23;32.08;95515.22;5116621;28;20199;-68
2022/07/18 10:59:38;;;;;;;4.65;3.05;;;;;;;25.31;33.71;95505.38;5116644;28;20522;-68
2022/07/18 11:02:07;;;;;;;2.20;2.00;;;;;;;25.42;32.22;95503.09;5116841;28;20176;-68
2022/07/18 11:04:37;;;;;;;2.67;2.08;;;;;;;25.44;31.01;95514.75;5115821;28;20223;-68
2022/07/18 11:07:06;;;;;;;2.55;2.13;;;;;;;25.37;31.26;95509.25;5115666;28;20231;-68
2022/07/18 11:09:37;;;;;;;3.10;2.20;;;;;;;25.39;32.00;95495.50;5116259;28;20207;-68
2022/07/18 11:12:24;;;;;;;2.88;2.20;;;;;;;25.42;32.57;95500.28;5116432;28;20618;-68
2022/07/18 11:15:04;;;;;;;3.00;2.40;;;;;;;25.51;32.74;95496.84;5116784;28;20196;-68
2022/07/18 11:18:02;;;;;;;2.47;2.28;;;;;;;25.72;31.79;95492.69;5116484;28;20269;-68
2022/07/18 11:20:41;;;;;;;2.47;2.20;;;;;;;25.84;31.37;95489.19;5115513;28;20501;-68
2022/07/18 11:23:20;;;;;;;2.85;2.50;;;;;;;25.91;31.38;95497.47;5115473;28;20243;-68
2022/07/18 11:25:48;;;;;;;2.17;2.05;;;;;;;25.90;30.58;95495.09;5115853;28;20192;-68
2022/07/18 11:28:15;;;;;;;2.55;2.33;;;;;;;25.89;31.20;95494.31;5115042;28;20192;-68
2022/07/18 11:30:44;;;;;;;2.72;2.45;;;;;;;25.83;29.74;95509.41;5116245;28;20180;-68
2022/07/18 11:33:25;;;;;;;3.42;2.55;;;;;;;25.79;30.59;95498.19;5116261;28;20176;-68
2022/07/18 11:35:52;;;;;;;4.13;2.30;;;;;;;25.76;30.64;95495.44;5114619;28;20216;-68
2022/07/18 11:38:19;;;;;;;3.58;2.40;;;;;;;25.80;32.08;95493.34;5116222;28;20180;-68
2022/07/18 11:40:50;;;;;;;6.10;2.45;;;;;;;25.95;32.24;95485.28;5115825;28;20253;-68
2022/07/18 11:43:24;;;;;;;2.60;2.30;;;;;;;26.02;31.27;95491.53;5115907;28;20175;-68